Time;durP1;ratioP1;P1;durP2;ratioP2;P2;SDS_P1;SDS_P2;PMS_P1;PMS_P2;Temp;Humidity;BMP_temperature;BMP_pressure;BME280_temperature;BME280_humidity;BME280_pressure;Samples;Min_cycle;Max_cycle;Signal;HPM_P1;HPM_P2
2023/02/23 00:02:20;;;;;;;14.97;7.23;;;;;;;-1.37;100.00;100545.59;30832792;28;20723;-75
2023/02/23 00:17:23;;;;;;;16.53;7.63;;;;;;;-1.32;100.00;100561.38;30846676;28;20138;-75
2023/02/23 00:32:25;;;;;;;14.37;6.40;;;;;;;-1.40;100.00;100580.88;30838851;28;20570;-78
2023/02/23 00:47:27;;;;;;;11.83;6.47;;;;;;;-1.52;100.00;100588.81;30832281;28;20835;-78
2023/02/23 01:02:29;;;;;;;13.50;7.07;;;;;;;-1.75;100.00;100591.78;30841605;28;20650;-78
2023/02/23 01:17:31;;;;;;;13.80;7.53;;;;;;;-1.89;100.00;100604.53;30824632;28;20047;-78
2023/02/23 01:32:35;;;;;;;12.87;6.70;;;;;;;-2.00;100.00;100606.03;30851846;28;20059;-77
2023/02/23 01:47:37;;;;;;;11.23;6.30;;;;;;;-2.09;100.00;100629.22;30839236;28;20154;-78
2023/02/23 02:02:40;;;;;;;12.50;6.83;;;;;;;-2.26;100.00;100653.25;30804256;28;20074;-78
2023/02/23 02:18:22;;;;;;;19.23;8.60;;;;;;;-2.34;100.00;100675.31;30834369;28;20495;-75
2023/02/23 02:33:44;;;;;;;13.13;8.00;;;;;;;-2.39;100.00;100683.50;30833554;28;20694;-75
2023/02/23 02:49:08;;;;;;;19.93;9.57;;;;;;;-2.46;100.00;100703.34;30825928;28;20055;-76
2023/02/23 04:21:37;;;;;;;10.30;7.50;;;;;;;-2.99;100.00;100779.97;30842513;28;20054;-76
2023/02/23 04:36:39;;;;;;;18.47;9.37;;;;;;;-3.13;100.00;100804.81;30848111;28;20059;-75
2023/02/23 04:51:41;;;;;;;27.27;12.23;;;;;;;-3.07;100.00;100821.34;30846859;28;20114;-76
2023/02/23 05:06:43;;;;;;;14.83;9.03;;;;;;;-3.08;100.00;100840.28;30848871;28;20117;-75
2023/02/23 05:21:45;;;;;;;15.50;9.33;;;;;;;-2.64;100.00;100849.91;30844985;28;20054;-76
2023/02/23 05:36:47;;;;;;;20.83;8.93;;;;;;;-1.86;100.00;100872.69;30840807;28;20113;-76
2023/02/23 05:51:49;;;;;;;12.60;8.20;;;;;;;-0.73;100.00;100881.84;30830077;28;20443;-76
2023/02/23 06:06:51;;;;;;;13.50;6.13;;;;;;;0.62;97.68;100897.31;30838160;28;20055;-76
2023/02/23 06:21:56;;;;;;;9.93;5.77;;;;;;;1.71;68.63;100919.78;30846375;28;20039;-76
2023/02/23 06:36:58;;;;;;;13.23;6.40;;;;;;;2.37;60.46;100930.81;30859646;28;20113;-76
2023/02/23 06:52:00;;;;;;;11.73;5.70;;;;;;;3.43;57.81;100945.31;30827124;28;20061;-75
2023/02/23 07:07:03;;;;;;;13.47;7.00;;;;;;;3.95;52.60;100949.50;30829704;28;20646;-75
2023/02/23 07:22:05;;;;;;;10.50;5.70;;;;;;;4.23;50.86;100957.38;30856040;28;20497;-77
2023/02/23 07:37:07;;;;;;;15.13;6.23;;;;;;;4.56;49.31;100970.25;30848819;28;20055;-77
2023/02/23 07:52:09;;;;;;;8.87;5.17;;;;;;;5.20;45.90;100996.38;30836906;28;20047;-76
2023/02/23 08:07:11;;;;;;;11.63;4.50;;;;;;;5.24;44.33;101017.97;30860839;28;20070;-76
2023/02/23 08:22:13;;;;;;;9.50;5.37;;;;;;;6.16;41.23;101006.66;30837515;28;20535;-77
2023/02/23 08:37:15;;;;;;;10.17;5.03;;;;;;;6.50;41.36;101006.69;30864025;28;20145;-76
2023/02/23 08:52:17;;;;;;;10.90;4.30;;;;;;;6.39;40.50;101030.81;30845989;28;20074;-76
2023/02/23 09:07:21;;;;;;;12.90;5.17;;;;;;;6.42;40.52;101032.78;30848712;28;20417;-76
2023/02/23 09:22:24;;;;;;;11.13;4.23;;;;;;;7.13;39.16;101041.63;30833049;28;20417;-79
2023/02/23 09:37:26;;;;;;;10.83;4.97;;;;;;;7.53;39.16;101042.75;30866616;28;20054;-75
2023/02/23 09:52:39;;;;;;;13.77;6.07;;;;;;;7.72;39.45;101056.03;30844724;28;20078;-84
2023/02/23 10:07:49;;;;;;;7.70;4.33;;;;;;;7.48;38.86;101051.97;30844927;28;20416;-83
2023/02/23 10:22:56;;;;;;;10.90;4.83;;;;;;;7.05;39.12;101048.13;30863501;28;20567;-83
2023/02/23 10:38:14;;;;;;;8.50;4.63;;;;;;;7.82;38.43;101041.78;30852986;28;20080;-83
2023/02/23 10:53:25;;;;;;;7.67;4.57;;;;;;;7.25;39.07;101047.91;30809387;28;20738;-75
2023/02/23 11:08:29;;;;;;;9.30;5.07;;;;;;;7.72;38.60;101053.31;30856832;28;20046;-72
2023/02/23 11:23:36;;;;;;;9.33;4.23;;;;;;;7.80;37.68;101057.59;30828465;28;20094;-76
2023/02/23 11:38:39;;;;;;;7.73;4.40;;;;;;;7.29;39.16;101067.63;30842746;28;20059;-77
2023/02/23 11:53:45;;;;;;;8.67;4.23;;;;;;;7.97;38.83;101055.41;30838072;28;20118;-77
2023/02/23 12:08:54;;;;;;;9.47;4.40;;;;;;;8.63;36.60;101053.44;30855610;28;20444;-74
2023/02/23 12:24:17;;;;;;;8.70;4.40;;;;;;;8.78;36.50;101061.22;30870094;28;20117;-75
2023/02/23 12:39:42;;;;;;;7.87;4.17;;;;;;;6.04;39.71;101060.03;30850658;28;20781;-74
2023/02/23 12:54:48;;;;;;;9.27;4.60;;;;;;;3.59;45.47;101091.03;30850137;28;20142;-81
2023/02/23 13:09:52;;;;;;;8.97;4.13;;;;;;;2.86;51.00;101101.38;30861334;28;20087;-78
2023/02/23 13:25:10;;;;;;;;;;;;;;;;;;;;;
2023/02/23 13:40:41;;;;;;;9.33;4.70;;;;;;;2.48;52.71;101108.00;30876318;28;20081;-79
2023/02/23 13:55:50;;;;;;;9.47;4.67;;;;;;;2.37;54.54;101121.06;30869289;28;20059;-80
2023/02/23 14:10:56;;;;;;;11.67;5.20;;;;;;;2.05;55.98;101124.69;30855064;28;20055;-86
2023/02/23 14:26:15;;;;;;;8.40;5.03;;;;;;;1.80;58.96;101126.59;30834093;28;20054;-75
2023/02/23 14:41:29;;;;;;;14.43;5.90;;;;;;;1.71;62.51;101140.06;30854604;28;20098;-81
2023/02/23 14:56:32;;;;;;;12.57;5.70;;;;;;;1.52;63.76;101131.78;30866163;28;20082;-79
2023/02/23 15:11:52;;;;;;;8.27;6.03;;;;;;;1.55;61.04;101141.06;30838851;28;20057;-77
2023/02/23 15:26:56;;;;;;;12.90;6.57;;;;;;;1.32;61.36;101156.72;30825764;28;20050;-79
2023/02/23 15:41:59;;;;;;;13.70;6.60;;;;;;;1.19;66.63;101176.50;30836521;28;20051;-77
2023/02/23 15:57:32;;;;;;;15.07;6.10;;;;;;;1.00;70.28;101196.47;30853120;28;20054;-74
2023/02/23 16:12:37;;;;;;;10.13;6.50;;;;;;;0.77;72.61;101213.94;30849644;28;20412;-74
2023/02/23 16:27:42;;;;;;;11.07;6.20;;;;;;;0.65;75.94;101220.00;30849872;28;20063;-83
2023/02/23 16:42:44;;;;;;;23.50;9.97;;;;;;;0.64;76.32;101234.47;30863101;28;20420;-73
2023/02/23 16:57:50;;;;;;;27.63;11.53;;;;;;;0.67;87.79;101241.84;30853499;28;20468;-75
2023/02/23 17:13:03;;;;;;;18.77;9.17;;;;;;;0.70;92.44;101235.09;30854939;28;20109;-74
2023/02/23 17:28:05;;;;;;;15.07;7.10;;;;;;;0.67;94.53;101238.41;30859826;28;20058;-78
2023/02/23 17:43:08;;;;;;;14.53;6.37;;;;;;;0.46;100.00;101229.56;30844875;28;20137;-79
2023/02/23 17:58:12;;;;;;;19.83;8.10;;;;;;;0.23;100.00;101221.81;30860722;28;20055;-83
2023/02/23 18:13:15;;;;;;;13.67;7.97;;;;;;;0.06;100.00;101243.22;30866491;28;20117;-78
2023/02/23 18:28:17;;;;;;;20.33;9.33;;;;;;;0.00;100.00;101247.19;30820177;28;20513;-77
2023/02/23 18:43:19;;;;;;;24.17;11.73;;;;;;;-0.12;100.00;101255.84;30835922;28;20165;-74
2023/02/23 18:58:21;;;;;;;24.90;13.60;;;;;;;-0.09;100.00;101246.41;30835012;28;20580;-77
2023/02/23 19:13:23;;;;;;;27.73;13.20;;;;;;;-0.05;100.00;101247.34;30840154;28;20059;-77
2023/02/23 19:28:26;;;;;;;33.03;15.70;;;;;;;-0.07;100.00;101261.03;30842731;28;20117;-75
2023/02/23 19:43:28;;;;;;;32.57;15.10;;;;;;;0.12;100.00;101247.28;30873065;28;20043;-77
2023/02/23 19:58:30;;;;;;;24.17;11.40;;;;;;;-0.22;100.00;101258.06;30849587;28;20086;-77
2023/02/23 20:13:33;;;;;;;27.40;11.00;;;;;;;-0.33;100.00;101276.28;30859544;28;20051;-77
2023/02/23 20:28:36;;;;;;;20.93;9.23;;;;;;;-0.40;100.00;101279.44;30850176;28;20059;-76
2023/02/23 20:43:39;;;;;;;18.30;9.77;;;;;;;-0.46;100.00;101275.34;30868437;28;20468;-75
2023/02/23 20:58:41;;;;;;;53.27;22.10;;;;;;;-0.47;100.00;101265.78;30838338;28;20851;-76
2023/02/23 21:13:43;;;;;;;17.87;9.17;;;;;;;-0.17;100.00;101260.56;30855246;28;20057;-76
2023/02/23 21:28:45;;;;;;;23.40;8.97;;;;;;;-0.25;100.00;101274.72;30830347;28;20424;-79
2023/02/23 21:43:52;;;;;;;14.80;7.10;;;;;;;-0.33;100.00;101299.53;30841562;28;20061;-76
2023/02/23 21:58:55;;;;;;;16.03;6.90;;;;;;;-0.26;100.00;101295.28;30826845;28;20055;-75
2023/02/23 22:13:58;;;;;;;13.07;6.97;;;;;;;-0.23;100.00;101296.50;30832693;28;20523;-76
2023/02/23 22:29:00;;;;;;;13.97;7.53;;;;;;;-0.40;100.00;101284.78;30842014;28;20043;-76
2023/02/23 22:44:03;;;;;;;11.33;5.80;;;;;;;0.01;100.00;101267.41;30855708;28;20090;-75
2023/02/23 22:59:07;;;;;;;17.33;7.07;;;;;;;-0.32;100.00;101240.50;30832119;28;20054;-77
2023/02/23 23:14:10;;;;;;;12.43;5.50;;;;;;;-0.19;100.00;101242.19;30834861;28;20046;-77
2023/02/23 23:29:13;;;;;;;16.13;7.47;;;;;;;-0.19;100.00;101241.41;30830799;28;20433;-76
2023/02/23 23:44:21;;;;;;;13.07;6.40;;;;;;;-0.37;100.00;101225.44;30813614;28;20133;-76
2023/02/23 23:59:25;;;;;;;13.13;7.00;;;;;;;-0.12;100.00;101209.69;30843062;28;20066;-75
